createdAt,value
2018-07-15T00:00:04.086Z,17.40
2018-07-15T00:02:33.749Z,17.50
2018-07-15T00:05:03.474Z,17.90
2018-07-15T00:07:33.146Z,17.90
2018-07-15T00:10:02.811Z,17.50
2018-07-15T00:12:32.422Z,17.10
2018-07-15T00:15:02.114Z,17.20
2018-07-15T00:17:31.805Z,17.00
2018-07-15T00:20:01.534Z,17.00
2018-07-15T00:22:31.238Z,16.70
2018-07-15T00:25:00.887Z,16.60
2018-07-15T00:27:30.641Z,16.60
2018-07-15T00:30:00.285Z,16.50
2018-07-15T00:32:29.922Z,16.60
2018-07-15T00:34:59.587Z,16.50
2018-07-15T00:37:29.250Z,16.50
2018-07-15T00:39:58.877Z,16.60
2018-07-15T00:42:28.554Z,16.50
2018-07-15T00:44:58.261Z,16.40
2018-07-15T00:47:27.887Z,16.50
2018-07-15T00:49:57.826Z,16.70
2018-07-15T00:52:27.494Z,16.60
2018-07-15T00:54:57.103Z,16.40
2018-07-15T00:57:26.774Z,16.10
2018-07-15T00:59:56.740Z,16.20
2018-07-15T01:02:26.383Z,16.10
2018-07-15T01:04:56.015Z,16.00
2018-07-15T01:07:25.762Z,16.10
2018-07-15T01:09:55.383Z,16.10
2018-07-15T01:12:25.050Z,15.90
2018-07-15T01:14:54.761Z,16.00
2018-07-15T01:17:24.427Z,16.30
2018-07-15T01:19:54.105Z,16.60
2018-07-15T01:22:23.799Z,16.80
2018-07-15T01:24:53.578Z,16.40
2018-07-15T01:27:23.226Z,16.20
2018-07-15T01:29:52.961Z,16.00
2018-07-15T01:32:22.629Z,16.00
2018-07-15T01:34:52.260Z,16.20
2018-07-15T01:37:21.923Z,16.70
2018-07-15T01:39:51.566Z,16.80
2018-07-15T01:42:21.182Z,16.80
2018-07-15T01:44:50.898Z,16.50
2018-07-15T01:47:20.533Z,16.10
2018-07-15T01:49:50.233Z,15.70
2018-07-15T01:52:19.966Z,15.60
2018-07-15T01:54:49.586Z,15.60
2018-07-15T01:57:19.301Z,15.70
2018-07-15T01:59:48.941Z,15.80
2018-07-15T02:02:18.567Z,15.60
2018-07-15T02:04:48.215Z,15.80
2018-07-15T02:07:17.937Z,16.40
2018-07-15T02:09:47.606Z,16.60
2018-07-15T02:12:17.317Z,16.90
2018-07-15T02:14:46.967Z,16.80
2018-07-15T02:17:16.648Z,16.30
2018-07-15T02:19:46.333Z,16.00
2018-07-15T02:22:16.001Z,15.50
2018-07-15T02:24:45.710Z,15.60
2018-07-15T02:27:15.402Z,15.20
2018-07-15T02:29:45.083Z,15.10
2018-07-15T02:32:14.768Z,15.00
2018-07-15T02:34:44.592Z,14.80
2018-07-15T02:37:14.239Z,14.80
2018-07-15T02:39:44.160Z,14.80
2018-07-15T02:42:13.898Z,14.90
2018-07-15T02:44:43.576Z,15.40
2018-07-15T02:47:13.575Z,15.70
2018-07-15T02:49:43.192Z,15.80
2018-07-15T02:52:12.890Z,15.90
2018-07-15T02:54:42.660Z,16.10
2018-07-15T02:57:12.313Z,15.70
2018-07-15T02:59:41.919Z,15.60
2018-07-15T03:02:11.602Z,15.50
2018-07-15T03:04:41.282Z,15.80
2018-07-15T03:07:11.238Z,15.70
2018-07-15T03:09:40.863Z,15.90
2018-07-15T03:12:10.633Z,16.20
2018-07-15T03:14:40.313Z,15.80
2018-07-15T03:17:10.022Z,15.30
2018-07-15T03:19:39.621Z,14.90
2018-07-15T03:22:09.608Z,14.80
2018-07-15T03:24:39.261Z,15.30
2018-07-15T03:27:09.039Z,15.60
2018-07-15T03:29:38.643Z,15.40
2018-07-15T03:32:08.402Z,15.50
2018-07-15T03:34:38.218Z,15.70
2018-07-15T03:37:07.918Z,15.30
2018-07-15T03:39:37.606Z,15.20
2018-07-15T03:42:07.430Z,14.90
2018-07-15T03:44:37.126Z,14.60
2018-07-15T03:47:06.863Z,14.30
2018-07-15T03:52:33.704Z,14.40
2018-07-15T03:55:03.481Z,14.60
2018-07-15T03:57:33.116Z,14.70
2018-07-15T04:00:02.774Z,15.10
2018-07-15T04:02:32.497Z,15.60
2018-07-15T04:05:02.162Z,15.70
2018-07-15T04:07:31.869Z,15.90
2018-07-15T04:10:01.546Z,15.50
2018-07-15T04:12:31.274Z,15.40
2018-07-15T04:15:00.963Z,15.20
2018-07-15T04:17:30.637Z,15.20
2018-07-15T04:20:00.347Z,15.10
2018-07-15T04:22:30.014Z,14.70
2018-07-15T04:24:59.692Z,14.70
2018-07-15T04:27:29.357Z,14.50
2018-07-15T04:29:59.072Z,14.50
2018-07-15T04:32:28.709Z,14.60
2018-07-15T04:34:58.369Z,14.70
2018-07-15T04:37:28.032Z,14.80
2018-07-15T04:39:58.125Z,15.20
2018-07-15T04:42:27.887Z,15.40
2018-07-15T04:44:57.558Z,15.40
2018-07-15T04:47:27.226Z,15.50
2018-07-15T04:49:56.933Z,15.40
2018-07-15T04:52:26.590Z,15.40
2018-07-15T04:54:56.301Z,15.10
2018-07-15T04:57:25.943Z,15.10
2018-07-15T04:59:55.954Z,15.20
2018-07-15T05:02:25.607Z,15.30
2018-07-15T05:04:55.312Z,15.40
2018-07-15T05:07:24.934Z,15.30
2018-07-15T05:09:54.606Z,15.30
2018-07-15T05:12:24.417Z,15.40
2018-07-15T05:14:54.150Z,15.50
2018-07-15T05:17:23.844Z,15.40
2018-07-15T05:19:54.497Z,15.50
2018-07-15T05:22:24.149Z,15.40
2018-07-15T05:24:53.881Z,15.40
2018-07-15T05:27:23.530Z,15.50
2018-07-15T05:29:53.261Z,15.50
2018-07-15T05:32:22.890Z,15.50
2018-07-15T05:34:52.637Z,15.60
2018-07-15T05:37:22.302Z,15.60
2018-07-15T05:39:52.013Z,15.60
2018-07-15T05:42:21.774Z,15.70
2018-07-15T05:44:51.430Z,15.70
2018-07-15T05:47:21.142Z,15.80
2018-07-15T05:49:50.839Z,15.90
2018-07-15T05:52:20.454Z,15.90
2018-07-15T05:54:50.133Z,16.00
2018-07-15T05:57:19.768Z,16.00
2018-07-15T05:59:49.434Z,16.10
2018-07-15T06:02:19.098Z,16.50
2018-07-15T06:04:48.728Z,16.40
2018-07-15T06:07:18.385Z,16.50
2018-07-15T06:09:48.051Z,16.50
2018-07-15T06:12:17.706Z,16.50
2018-07-15T06:14:47.401Z,16.60
2018-07-15T06:17:17.080Z,16.60
2018-07-15T06:19:46.731Z,16.60
2018-07-15T06:22:45.849Z,16.70
2018-07-15T06:25:15.526Z,16.70
2018-07-15T06:27:45.222Z,16.80
2018-07-15T06:30:14.969Z,16.80
2018-07-15T06:32:44.709Z,17.00
2018-07-15T06:35:14.478Z,17.10
2018-07-15T06:37:44.214Z,17.10
2018-07-15T06:40:13.974Z,17.10
2018-07-15T06:42:43.645Z,17.10
2018-07-15T06:45:13.366Z,17.30
2018-07-15T06:47:43.069Z,17.40
2018-07-15T06:50:12.754Z,17.40
2018-07-15T06:52:42.438Z,17.50
2018-07-15T06:55:12.121Z,17.50
2018-07-15T06:57:41.755Z,17.60
2018-07-15T07:00:11.412Z,17.70
2018-07-15T07:02:41.072Z,17.70
2018-07-15T07:05:10.762Z,17.70
2018-07-15T07:07:40.547Z,17.80
2018-07-15T07:10:10.272Z,17.90
2018-07-15T07:12:39.947Z,18.00
2018-07-15T07:15:09.666Z,18.00
2018-07-15T07:17:39.314Z,18.00
2018-07-15T07:20:09.029Z,18.10
2018-07-15T07:22:38.644Z,18.30
2018-07-15T07:25:08.322Z,18.40
2018-07-15T07:27:38.011Z,18.50
2018-07-15T07:30:07.743Z,18.50
2018-07-15T07:32:37.598Z,18.60
2018-07-15T07:35:07.625Z,18.70
2018-07-15T07:37:37.520Z,18.70
2018-07-15T07:40:07.201Z,18.80
2018-07-15T07:42:36.843Z,18.90
2018-07-15T07:45:06.532Z,18.90
2018-07-15T07:47:36.176Z,19.10
2018-07-15T07:50:06.206Z,19.30
2018-07-15T07:52:35.849Z,19.40
2018-07-15T07:55:05.547Z,19.40
2018-07-15T07:57:35.220Z,19.50
2018-07-15T08:00:04.987Z,19.60
2018-07-15T08:02:34.679Z,19.70
2018-07-15T08:05:04.382Z,19.80
2018-07-15T08:07:34.043Z,19.90
2018-07-15T08:10:03.804Z,19.90
2018-07-15T08:12:33.548Z,20.10
2018-07-15T08:15:03.241Z,20.20
2018-07-15T08:17:32.883Z,20.30
2018-07-15T08:20:02.546Z,20.40
2018-07-15T08:22:32.172Z,20.40
2018-07-15T08:25:02.861Z,20.70
2018-07-15T08:27:32.945Z,21.00
2018-07-15T08:30:19.165Z,21.10
2018-07-15T08:32:49.138Z,21.10
2018-07-15T08:35:18.751Z,21.10
2018-07-15T08:37:48.369Z,21.30
2018-07-15T08:40:17.941Z,21.60
2018-07-15T08:42:47.561Z,22.00
2018-07-15T08:45:17.203Z,22.00
2018-07-15T08:47:46.807Z,22.30
2018-07-15T08:50:16.413Z,22.10
2018-07-15T08:52:46.051Z,22.20
2018-07-15T08:55:15.650Z,22.50
2018-07-15T08:57:45.334Z,22.60
2018-07-15T09:00:15.026Z,22.60
2018-07-15T09:02:44.718Z,22.60
2018-07-15T09:05:14.321Z,23.20
2018-07-15T09:07:43.979Z,23.40
2018-07-15T09:10:13.662Z,23.60
2018-07-15T09:12:43.297Z,23.50
2018-07-15T09:15:12.918Z,23.60
2018-07-15T09:17:42.674Z,23.50
2018-07-15T09:20:12.298Z,23.50
2018-07-15T09:22:42.514Z,23.60
2018-07-15T09:25:12.181Z,23.90
2018-07-15T09:27:42.214Z,23.70
2018-07-15T09:30:12.216Z,24.00
2018-07-15T09:32:49.155Z,24.00
2018-07-15T09:35:19.268Z,24.00
2018-07-15T09:37:49.045Z,24.10
2018-07-15T09:40:18.802Z,24.50
2018-07-15T09:42:48.471Z,24.40
2018-07-15T09:45:18.667Z,24.50
2018-07-15T09:47:48.430Z,24.90
2018-07-15T09:50:18.147Z,24.70
2018-07-15T09:52:47.909Z,24.60
2018-07-15T09:55:17.797Z,24.90
2018-07-15T09:57:48.597Z,25.00
2018-07-15T10:00:23.289Z,24.90
2018-07-15T10:02:52.909Z,25.10
2018-07-15T10:05:22.579Z,25.40
2018-07-15T10:07:52.222Z,25.60
2018-07-15T10:10:22.054Z,25.40
2018-07-15T10:12:51.709Z,25.50
2018-07-15T10:15:21.329Z,25.50
2018-07-15T10:17:50.945Z,25.40
2018-07-15T10:20:20.585Z,25.60
2018-07-15T10:22:50.250Z,25.70
2018-07-15T10:25:19.879Z,25.80
2018-07-15T10:27:49.619Z,25.90
2018-07-15T10:30:19.265Z,26.10
2018-07-15T10:32:48.913Z,26.10
2018-07-15T10:35:18.513Z,26.00
2018-07-15T10:37:48.255Z,26.20
2018-07-15T10:40:17.913Z,26.30
2018-07-15T10:42:47.610Z,26.60
2018-07-15T10:45:17.300Z,26.90
2018-07-15T10:47:47.012Z,26.80
2018-07-15T10:50:16.615Z,27.00
2018-07-15T10:52:46.394Z,27.40
2018-07-15T10:55:15.929Z,27.00
2018-07-15T10:57:45.580Z,26.80
2018-07-15T11:00:15.302Z,27.00
2018-07-15T11:02:45.094Z,26.80
2018-07-15T11:05:14.733Z,27.10
2018-07-15T11:07:45.617Z,26.70
2018-07-15T11:10:15.295Z,26.80
2018-07-15T11:12:45.007Z,26.80
2018-07-15T11:15:15.685Z,27.00
2018-07-15T11:17:46.337Z,27.40
2018-07-15T11:20:17.054Z,27.50
2018-07-15T11:22:46.699Z,27.50
2018-07-15T11:25:23.680Z,27.40
2018-07-15T11:27:53.376Z,27.60
2018-07-15T11:30:23.066Z,27.60
2018-07-15T11:32:53.069Z,27.80
2018-07-15T11:35:22.791Z,28.20
2018-07-15T11:37:52.413Z,28.10
2018-07-15T11:40:22.137Z,27.90
2018-07-15T11:42:51.738Z,28.10
2018-07-15T11:45:21.379Z,28.00
2018-07-15T11:47:51.145Z,28.10
2018-07-15T11:50:20.783Z,28.20
2018-07-15T11:52:51.433Z,28.20
2018-07-15T11:55:21.097Z,28.40
2018-07-15T11:57:50.703Z,28.60
2018-07-15T12:00:20.376Z,28.40
2018-07-15T12:02:50.024Z,29.20
2018-07-15T12:05:23.258Z,29.00
2018-07-15T12:07:52.902Z,28.90
2018-07-15T12:10:22.526Z,29.10
2018-07-15T12:12:52.165Z,29.00
2018-07-15T12:15:21.806Z,28.60
2018-07-15T12:17:51.440Z,28.70
2018-07-15T12:20:21.156Z,28.70
2018-07-15T12:22:50.729Z,29.50
2018-07-15T12:25:20.382Z,29.50
2018-07-15T12:27:50.114Z,29.50
2018-07-15T12:30:19.758Z,29.70
2018-07-15T12:32:50.426Z,30.00
2018-07-15T12:35:20.059Z,30.10
2018-07-15T12:37:49.726Z,29.70
2018-07-15T12:40:19.346Z,29.50
2018-07-15T12:42:48.998Z,29.90
2018-07-15T12:45:18.642Z,29.90
2018-07-15T12:47:52.349Z,30.40
2018-07-15T12:50:22.222Z,30.10
2018-07-15T12:52:52.358Z,30.40
2018-07-15T12:55:22.050Z,30.60
2018-07-15T12:57:51.711Z,30.20
2018-07-15T13:00:21.494Z,30.00
2018-07-15T13:02:51.142Z,30.20
2018-07-15T13:05:20.806Z,30.60
2018-07-15T13:07:50.438Z,30.10
2018-07-15T13:10:20.138Z,30.80
2018-07-15T13:12:49.801Z,30.80
2018-07-15T13:15:19.693Z,31.40
2018-07-15T13:17:49.343Z,31.30
2018-07-15T13:20:19.342Z,31.00
2018-07-15T13:22:49.005Z,30.30
2018-07-15T13:25:18.693Z,30.00
2018-07-15T13:27:48.394Z,30.10
2018-07-15T13:30:18.047Z,30.80
2018-07-15T13:32:47.725Z,30.40
2018-07-15T13:35:17.342Z,30.50
2018-07-15T13:37:50.286Z,30.70
2018-07-15T13:40:19.930Z,30.50
2018-07-15T13:42:54.630Z,30.20
2018-07-15T13:45:24.278Z,30.40
2018-07-15T13:47:53.992Z,30.10
2018-07-15T13:50:23.646Z,30.40
2018-07-15T13:52:53.631Z,30.60
2018-07-15T13:55:23.366Z,30.80
2018-07-15T13:57:53.078Z,31.10
2018-07-15T14:00:22.756Z,31.70
2018-07-15T14:02:52.391Z,31.30
2018-07-15T14:05:22.060Z,31.10
2018-07-15T14:07:51.749Z,31.10
2018-07-15T14:10:21.401Z,30.70
2018-07-15T14:12:51.160Z,30.80
2018-07-15T14:15:20.974Z,30.70
2018-07-15T14:17:50.737Z,31.00
2018-07-15T14:20:20.354Z,30.90
2018-07-15T14:22:51.771Z,31.10
2018-07-15T14:25:23.993Z,30.70
2018-07-15T14:27:53.641Z,30.80
2018-07-15T14:30:23.348Z,30.80
2018-07-15T14:32:52.969Z,31.00
2018-07-15T14:35:22.714Z,30.60
2018-07-15T14:37:52.531Z,31.10
2018-07-15T14:40:22.160Z,31.40
2018-07-15T14:42:51.802Z,31.80
2018-07-15T14:45:21.411Z,32.00
2018-07-15T14:47:51.078Z,32.20
2018-07-15T14:50:20.706Z,31.70
2018-07-15T14:52:50.402Z,31.80
2018-07-15T14:55:20.109Z,31.70
2018-07-15T14:57:49.762Z,31.20
2018-07-15T15:00:19.449Z,31.30
2018-07-15T15:02:49.102Z,31.40
2018-07-15T15:05:18.754Z,31.10
2018-07-15T15:07:48.373Z,31.00
2018-07-15T15:10:18.010Z,31.20
2018-07-15T15:12:47.613Z,31.40
2018-07-15T15:15:17.253Z,31.60
2018-07-15T15:17:46.858Z,31.70
2018-07-15T15:20:16.483Z,31.80
2018-07-15T15:22:46.119Z,31.40
2018-07-15T15:25:15.763Z,31.60
2018-07-15T15:27:46.697Z,31.50
2018-07-15T15:30:18.369Z,31.80
2018-07-15T15:32:48.047Z,31.40
2018-07-15T15:35:17.695Z,31.00
2018-07-15T15:37:47.349Z,30.80
2018-07-15T15:40:17.662Z,31.40
2018-07-15T15:42:47.334Z,31.40
2018-07-15T15:45:16.957Z,31.00
2018-07-15T15:47:46.605Z,31.30
2018-07-15T15:50:18.459Z,31.50
2018-07-15T15:52:48.246Z,31.80
2018-07-15T15:55:17.903Z,31.50
2018-07-15T15:57:47.587Z,31.30
2018-07-15T16:00:17.224Z,31.30
2018-07-15T16:02:46.860Z,31.60
2018-07-15T16:05:16.498Z,31.20
2018-07-15T16:07:46.151Z,31.10
2018-07-15T16:10:15.806Z,31.40
2018-07-15T16:12:45.505Z,31.20
2018-07-15T16:15:15.162Z,31.00
2018-07-15T16:17:44.846Z,30.80
2018-07-15T16:20:14.454Z,30.80
2018-07-15T16:22:44.258Z,30.90
2018-07-15T16:25:14.177Z,30.90
2018-07-15T16:27:43.963Z,30.90
2018-07-15T16:30:13.667Z,30.90
2018-07-15T16:32:43.302Z,31.00
2018-07-15T16:35:12.942Z,31.00
2018-07-15T16:37:42.593Z,31.00
2018-07-15T16:40:12.288Z,30.90
2018-07-15T16:42:41.913Z,31.00
2018-07-15T16:45:11.571Z,31.00
2018-07-15T16:47:43.278Z,30.80
2018-07-15T16:50:12.925Z,31.00
2018-07-15T16:52:42.554Z,31.00
2018-07-15T16:55:12.190Z,30.80
2018-07-15T16:57:41.862Z,30.90
2018-07-15T17:00:11.590Z,30.60
2018-07-15T17:02:41.265Z,30.60
2018-07-15T17:05:10.886Z,30.70
2018-07-15T17:07:40.572Z,30.70
2018-07-15T17:10:10.235Z,30.80
2018-07-15T17:12:39.898Z,30.70
2018-07-15T17:15:09.541Z,30.50
2018-07-15T17:17:39.228Z,30.50
2018-07-15T17:20:08.937Z,30.20
2018-07-15T17:22:38.525Z,30.20
2018-07-15T17:25:08.205Z,30.20
2018-07-15T17:27:37.856Z,30.20
2018-07-15T17:30:07.534Z,29.80
2018-07-15T17:32:37.131Z,29.40
2018-07-15T17:35:06.854Z,29.70
2018-07-15T17:37:37.455Z,29.50
2018-07-15T17:40:07.184Z,29.00
2018-07-15T17:42:36.786Z,29.10
2018-07-15T17:45:06.527Z,28.90
2018-07-15T17:47:36.166Z,28.60
2018-07-15T17:50:05.881Z,28.50
2018-07-15T17:52:36.559Z,28.30
2018-07-15T17:55:06.335Z,28.30
2018-07-15T17:57:36.089Z,28.30
2018-07-15T18:00:05.814Z,27.90
2018-07-15T18:02:35.472Z,27.70
2018-07-15T18:05:05.213Z,27.60
2018-07-15T18:07:34.834Z,27.50
2018-07-15T18:10:04.467Z,27.40
2018-07-15T18:12:34.117Z,27.20
2018-07-15T18:15:03.882Z,27.20
2018-07-15T18:17:33.513Z,27.10
2018-07-15T18:20:03.178Z,27.10
2018-07-15T18:22:32.814Z,26.90
2018-07-15T18:25:02.443Z,26.80
2018-07-15T18:27:32.099Z,26.60
2018-07-15T18:30:01.754Z,26.60
2018-07-15T18:32:31.402Z,26.50
2018-07-15T18:35:01.055Z,26.40
2018-07-15T18:37:30.694Z,26.30
2018-07-15T18:40:00.370Z,26.20
2018-07-15T18:42:30.034Z,26.20
2018-07-15T18:45:00.802Z,26.10
2018-07-15T18:47:30.395Z,26.00
2018-07-15T18:50:00.055Z,26.00
2018-07-15T18:52:30.043Z,25.90
2018-07-15T18:55:00.759Z,25.80
2018-07-15T18:57:31.502Z,25.80
2018-07-15T19:00:01.160Z,25.80
2018-07-15T19:02:31.899Z,25.60
2018-07-15T19:05:01.537Z,25.50
2018-07-15T19:07:31.199Z,25.40
2018-07-15T19:10:01.922Z,25.40
2018-07-15T19:12:31.756Z,25.30
2018-07-15T19:15:01.400Z,25.30
2018-07-15T19:17:31.013Z,25.20
2018-07-15T19:20:00.765Z,25.10
2018-07-15T19:22:30.442Z,25.10
2018-07-15T19:25:00.597Z,25.00
2018-07-15T19:27:30.586Z,25.00
2018-07-15T19:30:00.223Z,24.90
2018-07-15T19:32:29.863Z,24.90
2018-07-15T19:34:59.539Z,24.90
2018-07-15T19:37:29.198Z,24.90
2018-07-15T19:39:58.953Z,24.70
2018-07-15T19:42:28.603Z,24.70
2018-07-15T19:44:58.320Z,24.60
2018-07-15T19:47:27.971Z,24.60
2018-07-15T19:49:57.590Z,24.50
2018-07-15T19:52:27.341Z,24.40
2018-07-15T19:54:57.062Z,24.30
2018-07-15T19:57:26.690Z,24.30
2018-07-15T19:59:56.301Z,24.20
2018-07-15T20:02:26.049Z,24.20
2018-07-15T20:04:56.604Z,24.20
2018-07-15T20:07:26.289Z,24.10
2018-07-15T20:09:56.007Z,24.10
2018-07-15T20:12:25.682Z,24.00
2018-07-15T20:14:55.391Z,23.90
2018-07-15T20:17:25.126Z,23.90
2018-07-15T20:19:55.514Z,23.80
2018-07-15T20:22:25.082Z,23.80
2018-07-15T20:24:54.958Z,23.80
2018-07-15T20:27:24.625Z,23.60
2018-07-15T20:29:54.262Z,23.50
2018-07-15T20:32:23.901Z,23.30
2018-07-15T20:34:53.570Z,23.30
2018-07-15T20:37:23.205Z,23.30
2018-07-15T20:39:52.841Z,23.20
2018-07-15T20:42:22.523Z,23.10
2018-07-15T20:44:52.206Z,23.10
2018-07-15T20:47:21.901Z,23.00
2018-07-15T20:49:51.606Z,22.40
2018-07-15T20:52:22.367Z,22.10
2018-07-15T20:54:53.114Z,22.00
2018-07-15T20:57:23.071Z,22.10
2018-07-15T20:59:52.908Z,21.90
2018-07-15T21:02:22.730Z,21.50
2018-07-15T21:04:52.597Z,21.00
2018-07-15T21:07:22.614Z,20.80
2018-07-15T21:09:52.513Z,20.80
2018-07-15T21:12:22.199Z,21.00
2018-07-15T21:14:51.901Z,21.10
2018-07-15T21:17:21.519Z,21.50
2018-07-15T21:19:51.151Z,21.80
2018-07-15T21:22:20.777Z,21.90
2018-07-15T21:24:50.421Z,21.80
2018-07-15T21:27:20.042Z,21.00
2018-07-15T21:29:49.706Z,20.60
2018-07-15T21:32:19.358Z,20.40
2018-07-15T21:34:48.991Z,20.00
2018-07-15T21:37:18.741Z,19.90
2018-07-15T21:39:48.602Z,19.80
2018-07-15T21:42:18.306Z,19.70
2018-07-15T21:44:47.969Z,19.70
2018-07-15T21:47:18.042Z,19.50
2018-07-15T21:49:47.681Z,19.60
2018-07-15T21:52:17.526Z,20.10
2018-07-15T21:54:47.183Z,20.80
2018-07-15T21:57:17.288Z,21.10
2018-07-15T21:59:47.210Z,21.10
2018-07-15T22:02:18.863Z,20.80
2018-07-15T22:04:48.663Z,20.40
2018-07-15T22:07:40.340Z,20.10
2018-07-15T22:10:21.901Z,19.80
2018-07-15T22:12:51.609Z,19.40
2018-07-15T22:15:21.540Z,19.10
2018-07-15T22:17:51.165Z,19.20
2018-07-15T22:20:21.902Z,19.40
2018-07-15T22:22:51.557Z,19.40
2018-07-15T22:25:21.224Z,19.00
2018-07-15T22:27:50.885Z,18.80
2018-07-15T22:30:20.549Z,18.60
2018-07-15T22:32:50.499Z,18.80
2018-07-15T22:35:20.097Z,18.80
2018-07-15T22:37:49.783Z,18.50
2018-07-15T22:40:19.434Z,18.30
2018-07-15T22:42:49.133Z,18.40
2018-07-15T22:45:18.827Z,18.60
2018-07-15T22:47:48.579Z,19.20
2018-07-15T22:50:18.233Z,19.70
2018-07-15T22:52:47.850Z,19.40
2018-07-15T22:55:17.499Z,18.50
2018-07-15T22:57:48.137Z,18.40
2018-07-15T23:00:17.805Z,18.30
2018-07-15T23:02:48.659Z,18.60
2018-07-15T23:05:51.893Z,19.10
2018-07-15T23:08:22.154Z,19.60
2018-07-15T23:10:51.886Z,19.20
2018-07-15T23:13:21.660Z,18.80
2018-07-15T23:15:51.567Z,18.80
2018-07-15T23:18:21.437Z,19.20
2018-07-15T23:20:51.717Z,19.60
2018-07-15T23:23:21.369Z,19.70
2018-07-15T23:25:51.025Z,18.60
2018-07-15T23:28:20.634Z,17.80
2018-07-15T23:30:50.251Z,17.40
2018-07-15T23:33:19.910Z,17.30
2018-07-15T23:35:49.558Z,17.30
2018-07-15T23:38:19.196Z,17.10
2018-07-15T23:40:48.845Z,17.00
